»·PEaware :: N122WM KSBA-KBUR

N122WM :: KSBA-KBUR

FLIGHT INFORMATION

Flight Status: Arrived
Operator: Privately registered:
United States
More flights under this callsign
Pilot: Chad H. (22814)
Aircraft: CESSNA 172 SKYHAWK
(C172)
More flights by this aircraft type
Origin: KSBA Santa Barbara Mun
United States
Destination: KBUR Bob Hope-Burbank
United States
More flights between these airports :: More routes between these airports
Route:
File this flight plan on PilotEdge
Remarks: CAT-8
Altitude:
(Current/Filed)
7,500ft
Speed:
(Current/Filed)
115kts
Departed: 11-Jan-19 02:53 PM
Arrived: 11-Jan-19 03:33 PM
Distance/Time
Traveled:
75nm/0:40
Distance/Time
To Go:
Arrived

Flight Plot

Page will automatically refresh every two minutes.


Map Options




Map Legend


Flown Route
Filed Route
Departure Airport
Arrival Airport
Navaid (VOR, NDB)
Fix

Horizontal Profiles

Position Reports

Time Latitude Longitude Heading Altitude Ground
Speed
11-Jan-19 14:19 34.432576 -119.835078 70 17ft 0kts
11-Jan-19 14:20 34.432576 -119.835078 70 17ft 0kts
11-Jan-19 14:21 34.432576 -119.835078 70 17ft 0kts
11-Jan-19 14:22 34.432576 -119.835078 70 17ft 0kts
11-Jan-19 14:23 34.432576 -119.835078 70 17ft 0kts
11-Jan-19 14:24 34.432576 -119.835078 70 17ft 0kts
11-Jan-19 14:25 34.432576 -119.835078 70 17ft 0kts
11-Jan-19 14:26 34.432576 -119.835078 70 17ft 0kts
11-Jan-19 14:28 34.432576 -119.835078 70 17ft 0kts
11-Jan-19 14:29 34.432576 -119.835078 70 17ft 0kts
11-Jan-19 14:33 34.432576 -119.835078 70 17ft 0kts
11-Jan-19 14:34 34.432576 -119.835078 70 17ft 0kts
11-Jan-19 14:35 34.432576 -119.835078 70 17ft 0kts
11-Jan-19 14:36 34.432576 -119.835078 70 17ft 0kts
11-Jan-19 14:37 34.432576 -119.835078 70 17ft 0kts
11-Jan-19 14:38 34.432576 -119.835078 70 17ft 0kts
11-Jan-19 14:39 34.432576 -119.835078 70 17ft 0kts
11-Jan-19 14:44 34.432576 -119.835078 70 17ft 0kts
11-Jan-19 14:45 34.432576 -119.835078 70 17ft 0kts
11-Jan-19 14:46 34.432576 -119.835078 70 17ft 0kts
11-Jan-19 14:47 34.432576 -119.835078 70 17ft 0kts
11-Jan-19 14:48 34.432576 -119.835078 70 17ft 0kts
11-Jan-19 14:49 34.432580 -119.835064 74 17ft 2kts
11-Jan-19 14:50 34.430964 -119.839013 251 17ft 21kts
11-Jan-19 14:51 34.430713 -119.839738 243 17ft 3kts
11-Jan-19 14:52 34.416495 -119.835641 162 255ft 102kts
11-Jan-19 14:53 34.386258 -119.823668 161 770ft 119kts
11-Jan-19 14:54 34.359869 -119.804268 95 1320ft 115kts
11-Jan-19 14:55 34.357807 -119.766328 95 2017ft 111kts
11-Jan-19 14:56 34.353887 -119.729549 97 2717ft 109kts
11-Jan-19 14:57 34.349402 -119.693651 98 3416ft 107kts
11-Jan-19 14:58 34.344775 -119.658118 98 4115ft 107kts
11-Jan-19 14:59 34.340075 -119.622550 98 4815ft 106kts
11-Jan-19 15:00 34.335454 -119.587738 98 5513ft 104kts
11-Jan-19 15:01 34.330873 -119.553338 98 6211ft 103kts
11-Jan-19 15:02 34.326321 -119.519246 98 6912ft 101kts
11-Jan-19 15:03 34.321795 -119.485447 98 7497ft 110kts
11-Jan-19 15:04 34.316520 -119.446846 98 7500ft 118kts
11-Jan-19 15:05 34.311031 -119.406390 98 7417ft 120kts
11-Jan-19 15:06 34.305595 -119.366119 98 7419ft 125kts
11-Jan-19 15:07 34.299911 -119.324062 99 7417ft 128kts
11-Jan-19 15:08 34.294090 -119.281194 99 7417ft 128kts
11-Jan-19 15:09 34.288246 -119.238324 99 7304ft 133kts
11-Jan-19 15:10 34.282194 -119.194227 99 6966ft 130kts
11-Jan-19 15:11 34.276296 -119.151221 99 6665ft 129kts
11-Jan-19 15:12 34.270397 -119.108267 99 6365ft 129kts
11-Jan-19 15:13 34.264495 -119.065403 99 6064ft 129kts
11-Jan-19 15:14 34.258609 -119.022784 99 5764ft 128kts
11-Jan-19 15:15 34.252699 -118.980088 99 5463ft 128kts
11-Jan-19 15:16 34.247054 -118.939361 99 5426ft 119kts
11-Jan-19 15:17 34.241435 -118.898993 99 5255ft 123kts
11-Jan-19 15:18 34.235739 -118.858167 99 5094ft 120kts
11-Jan-19 15:19 34.230301 -118.819217 99 5097ft 116kts
11-Jan-19 15:20 34.224816 -118.780028 99 5069ft 122kts
11-Jan-19 15:21 34.218914 -118.738091 99 4819ft 128kts
11-Jan-19 15:22 34.213006 -118.696252 99 4426ft 122kts
11-Jan-19 15:23 34.207372 -118.656421 99 3718ft 118kts
11-Jan-19 15:24 34.201983 -118.620290 95 3628ft 111kts
11-Jan-19 15:25 34.200292 -118.582509 89 3625ft 112kts
11-Jan-19 15:26 34.200019 -118.545205 90 3592ft 109kts
11-Jan-19 15:27 34.199542 -118.505912 90 3031ft 117kts
11-Jan-19 15:28 34.199120 -118.468814 90 2642ft 112kts
11-Jan-19 15:29 34.198716 -118.433556 90 1861ft 90kts
11-Jan-19 15:30 34.198379 -118.405998 90 1431ft 83kts
11-Jan-19 15:31 34.198018 -118.377786 90 986ft 81kts
11-Jan-19 15:32 34.198390 -118.360229 6 780ft 13kts

Navigation Log

Ident Type
Flight plan parsing failed, navigation log unavailable